Weather History for KASW - November, 2013

Change the Weather History Date:

Saturday, November 30, 2013

  Actual Average Record
Temperature  
Mean Temperature 39 °F -  
Max Temperature 48 °F 40 °F 62 °F (1962)
Min Temperature 30 °F 28 °F 2 °F (1958)
Degree Days  
Heating Degree Days 26    
Moisture  
Dew Point 26 °F    
Average Humidity 66    
Maximum Humidity 75    
Minimum Humidity 46    
Precipitation  
Precipitation 0.00 in - - ()
Sea Level Pressure  
Sea Level Pressure 30.27 in    
Wind  
Wind Speed 5 mph (South)    
Max Wind Speed 10 mph    
Max Gust Speed 22 mph    
Visibility 10 miles    
Events      
Averages and records for this station are not official NWS values.
T = Trace of Precipitation, MM = Missing Value Source: NWS Daily Summary

Daily Weather History Graph

Daily Weather History Graph

Search for Another Location

Airport or City:

Trip Planner

Search our weather history database for the weather conditions in past years. The results will help you decide how hot, cold, wet, or windy it might be!

Date:

Astronomy

Nov. 30, 2013 Rise Set
Actual Time 7:48 AM EST 5:15 PM EST
Civil Twilight 7:18 AM EST 5:45 PM EST
Nautical Twilight 6:43 AM EST 6:20 PM EST
Astronomical Twilight 6:10 AM EST 6:53 PM EST
Moon 4:57 AM EST (11/30) 3:40 PM EST (11/30)
Length of Visible Light 10h 27m
Length of Day
9h 26m
Waning Crescent, 7% of the Moon is Illuminated
Nov 30
Waning Crescent
Dec 2
New
Dec 9
First Quarter
Dec 17
Full
Dec 25
Last Quarter

Hourly Weather History & Observations

Time (EST) Temp. Windchill Dew Point Humidity Pressure Visibility Wind Dir Wind Speed Gust Speed Precip Events Conditions
12:15 AM 30.2 °F 24.3 °F 21.2 °F 69% 30.48 in 10.0 mi SE 5.8 mph - N/A   Clear
12:35 AM 30.2 °F 22.6 °F 21.2 °F 69% 30.48 in 10.0 mi SSE 8.1 mph - N/A   Clear
12:55 AM 30.2 °F 24.3 °F 21.2 °F 69% 30.47 in 10.0 mi SSE 5.8 mph - N/A   Clear
1:15 AM 30.2 °F 24.3 °F 21.2 °F 69% 30.47 in 10.0 mi SSE 5.8 mph - N/A   Clear
1:35 AM 30.2 °F 25.4 °F 21.2 °F 69% 30.46 in 10.0 mi SSE 4.6 mph - N/A   Clear
1:55 AM 30.2 °F 25.4 °F 21.2 °F 69% 30.45 in 10.0 mi SE 4.6 mph - N/A   Clear
2:15 AM 30.2 °F 26.7 °F 21.2 °F 69% 30.45 in 10.0 mi SE 3.5 mph - N/A   Clear
2:35 AM 30.2 °F 26.7 °F 21.2 °F 69% 30.45 in 10.0 mi SSE 3.5 mph - N/A   Scattered Clouds
2:55 AM 30.2 °F 25.4 °F 21.2 °F 69% 30.44 in 10.0 mi SSE 4.6 mph - N/A   Scattered Clouds
3:15 AM 30.2 °F 26.7 °F 21.2 °F 69% 30.44 in 10.0 mi SSE 3.5 mph - N/A   Mostly Cloudy
3:35 AM 30.2 °F 24.3 °F 21.2 °F 69% 30.44 in 10.0 mi SSE 5.8 mph - N/A   Mostly Cloudy
3:55 AM 30.2 °F 25.4 °F 21.2 °F 69% 30.43 in 10.0 mi South 4.6 mph - N/A   Scattered Clouds
4:15 AM 30.2 °F 26.7 °F 23.0 °F 75% 30.42 in 10.0 mi SSE 3.5 mph - N/A   Scattered Clouds
4:35 AM 30.2 °F 23.4 °F 23.0 °F 75% 30.41 in 10.0 mi South 6.9 mph - N/A   Scattered Clouds
4:55 AM 30.2 °F 25.4 °F 23.0 °F 75% 30.40 in 10.0 mi South 4.6 mph - N/A   Clear
5:15 AM 30.2 °F 25.4 °F 23.0 °F 75% 30.40 in 10.0 mi South 4.6 mph - N/A   Clear
5:35 AM 30.2 °F 23.4 °F 23.0 °F 75% 30.40 in 10.0 mi South 6.9 mph - N/A   Scattered Clouds
5:55 AM 30.2 °F 23.4 °F 23.0 °F 75% 30.39 in 10.0 mi South 6.9 mph - N/A   Scattered Clouds
6:15 AM 30.2 °F 24.3 °F 23.0 °F 75% 30.38 in 10.0 mi South 5.8 mph - N/A   Clear
6:35 AM 30.2 °F 24.3 °F 23.0 °F 75% 30.38 in 10.0 mi South 5.8 mph - N/A   Clear
6:55 AM 30.2 °F 25.4 °F 23.0 °F 75% 30.38 in 10.0 mi South 4.6 mph - N/A   Clear
7:15 AM 30.2 °F 24.3 °F 23.0 °F 75% 30.38 in 10.0 mi South 5.8 mph - N/A   Clear
7:35 AM 30.2 °F 25.4 °F 23.0 °F 75% 30.37 in 10.0 mi South 4.6 mph - N/A   Clear
7:55 AM 30.2 °F 25.4 °F 23.0 °F 75% 30.37 in 10.0 mi South 4.6 mph - N/A   Clear
8:15 AM 30.2 °F 25.4 °F 23.0 °F 75% 30.36 in 10.0 mi South 4.6 mph - N/A   Clear
8:35 AM 30.2 °F 24.3 °F 23.0 °F 75% 30.36 in 10.0 mi South 5.8 mph - N/A   Clear
8:55 AM 30.2 °F 25.4 °F 23.0 °F 75% 30.36 in 10.0 mi South 4.6 mph - N/A   Clear
9:15 AM 30.2 °F - 23.0 °F 75% 30.35 in 10.0 mi Calm Calm - N/A   Clear
9:35 AM 32.0 °F 25.6 °F 24.8 °F 75% 30.34 in 10.0 mi South 6.9 mph - N/A   Clear
9:55 AM 32.0 °F - 24.8 °F 75% 30.34 in 10.0 mi Calm Calm - N/A   Clear
10:15 AM 33.8 °F 27.7 °F 26.6 °F 75% 30.33 in 10.0 mi South 6.9 mph - N/A   Clear
10:35 AM 35.6 °F 29.2 °F 26.6 °F 70% 30.32 in 10.0 mi South 8.1 mph - N/A   Clear
10:55 AM 35.6 °F 29.9 °F 26.6 °F 70% 30.32 in 10.0 mi SSW 6.9 mph - N/A   Clear
11:15 AM 37.4 °F 31.4 °F 26.6 °F 65% 30.30 in 10.0 mi South 8.1 mph - N/A   Clear
11:35 AM 39.2 °F 33.6 °F 26.6 °F 61% 30.29 in 10.0 mi South 8.1 mph - N/A   Clear
11:55 AM 41.0 °F 36.4 °F 26.6 °F 57% 30.28 in 10.0 mi SSW 6.9 mph - N/A   Clear
12:15 PM 42.8 °F 38.6 °F 28.4 °F 57% 30.27 in 10.0 mi SSW 6.9 mph - N/A   Clear
12:35 PM 42.8 °F 37.0 °F 28.4 °F 57% 30.25 in 10.0 mi SSW 10.4 mph - N/A   Clear
12:55 PM 44.6 °F 40.7 °F 28.4 °F 53% 30.24 in 10.0 mi South 6.9 mph 17.3 mph N/A   Clear
1:15 PM 44.6 °F 40.2 °F 28.4 °F 53% 30.23 in 10.0 mi SSW 8.1 mph - N/A   Clear
1:35 PM 46.4 °F 42.4 °F 28.4 °F 50% 30.21 in 10.0 mi SSW 8.1 mph 16.1 mph N/A   Clear
1:55 PM 46.4 °F 45.2 °F 30.2 °F 53% 30.20 in 10.0 mi SSW 3.5 mph - N/A   Clear
2:15 PM 46.4 °F 42.4 °F 30.2 °F 53% 30.18 in 10.0 mi SW 8.1 mph 21.9 mph N/A   Clear
2:35 PM 46.4 °F 41.5 °F 30.2 °F 53% 30.17 in 10.0 mi SW 10.4 mph 18.4 mph N/A   Clear
2:55 PM 48.2 °F - 28.4 °F 46% 30.16 in 10.0 mi SW 9.2 mph 16.1 mph N/A   Clear
3:15 PM 48.2 °F - 28.4 °F 46% 30.15 in 10.0 mi SW 8.1 mph 17.3 mph N/A   Clear
3:35 PM 46.4 °F 41.5 °F 28.4 °F 50% 30.15 in 10.0 mi SW 10.4 mph - N/A   Clear
3:55 PM 46.4 °F 41.9 °F 28.4 °F 50% 30.14 in 10.0 mi SW 9.2 mph - N/A   Clear
4:15 PM 46.4 °F 43.5 °F 28.4 °F 50% 30.14 in 10.0 mi SW 5.8 mph - N/A   Clear
4:35 PM 46.4 °F 43.5 °F 28.4 °F 50% 30.14 in 10.0 mi SSW 5.8 mph - N/A   Clear
4:55 PM 46.4 °F 45.2 °F 28.4 °F 50% 30.13 in 10.0 mi SSW 3.5 mph - N/A   Clear
5:15 PM 44.6 °F 43.1 °F 28.4 °F 53% 30.13 in 10.0 mi SSW 3.5 mph - N/A   Clear
5:35 PM 42.8 °F 41.1 °F 28.4 °F 57% 30.14 in 10.0 mi SSW 3.5 mph - N/A   Clear
5:55 PM 41.0 °F - 28.4 °F 61% 30.14 in 10.0 mi Calm Calm - N/A   Clear
6:15 PM 39.2 °F - 28.4 °F 65% 30.14 in 10.0 mi Calm Calm - N/A   Clear
6:35 PM 35.6 °F - 28.4 °F 75% 30.13 in 10.0 mi Calm Calm - N/A   Clear
6:55 PM 37.4 °F 34.9 °F 28.4 °F 70% 30.13 in 10.0 mi South 3.5 mph - N/A   Clear
7:15 PM 39.2 °F 37.0 °F 28.4 °F 65% 30.13 in 10.0 mi South 3.5 mph - N/A   Clear
7:35 PM 39.2 °F - 28.4 °F 65% 30.13 in 10.0 mi Calm Calm - N/A   Clear
7:55 PM 37.4 °F - 28.4 °F 70% 30.13 in 10.0 mi Calm Calm - N/A   Clear
8:15 PM 37.4 °F - 28.4 °F 70% 30.13 in 10.0 mi Calm Calm - N/A   Clear
8:35 PM 37.4 °F 33.8 °F 26.6 °F 65% 30.13 in 10.0 mi SSW 4.6 mph - N/A   Clear
8:55 PM 37.4 °F 34.9 °F 26.6 °F 65% 30.13 in 10.0 mi SSW 3.5 mph - N/A   Clear
9:15 PM 37.4 °F 34.9 °F 26.6 °F 65% 30.12 in 10.0 mi South 3.5 mph - N/A   Clear
9:35 PM 37.4 °F 34.9 °F 26.6 °F 65% 30.12 in 10.0 mi SSW 3.5 mph - N/A   Clear
9:55 PM 35.6 °F - 26.6 °F 70% 30.12 in 10.0 mi Calm Calm - N/A   Clear
10:15 PM 35.6 °F - 26.6 °F 70% 30.12 in 10.0 mi Calm Calm - N/A   Clear
10:35 PM 37.4 °F - 26.6 °F 65% 30.12 in 10.0 mi Calm Calm - N/A   Clear
10:55 PM 35.6 °F - 26.6 °F 70% 30.12 in 10.0 mi Calm Calm - N/A   Clear
11:15 PM 35.6 °F - 26.6 °F 70% 30.12 in 10.0 mi Calm Calm - N/A   Mostly Cloudy
11:35 PM 37.4 °F - 26.6 °F 65% 30.11 in 10.0 mi Calm Calm - N/A   Overcast
11:55 PM 39.2 °F 37.0 °F 28.4 °F 65% 30.10 in 10.0 mi SW 3.5 mph - N/A   Overcast